Time;durP1;ratioP1;P1;durP2;ratioP2;P2;SDS_P1;SDS_P2;PMS_P1;PMS_P2;Temp;Humidity;BMP_temperature;BMP_pressure;BME280_temperature;BME280_humidity;BME280_pressure;Samples;Min_cycle;Max_cycle;Signal;HPM_P1;HPM_P2
2022/04/09 00:02:21;;;;;;;9.32;3.80;;;;;;;;;;4991745;28;20609;-63
2022/04/09 00:04:47;;;;;;;13.55;4.18;;;;;;;;;;4991418;28;20029;-62
2022/04/09 00:07:13;;;;;;;9.50;4.57;;;;;;;;;;4992137;28;20432;-63
2022/04/09 00:09:38;;;;;;;9.20;4.10;;;;;;;;;;4991208;28;20387;-63
2022/04/09 00:12:04;;;;;;;13.45;4.05;;;;;;;;;;4991221;28;20447;-63
2022/04/09 00:14:29;;;;;;;12.93;4.63;;;;;;;;;;4991359;28;20582;-62
2022/04/09 00:16:54;;;;;;;9.45;4.30;;;;;;;;;;4991310;28;20444;-63
2022/04/09 00:19:20;;;;;;;11.40;4.72;;;;;;;;;;4990543;28;20463;-62
2022/04/09 00:21:46;;;;;;;10.38;4.47;;;;;;;;;;4991163;28;20340;-63
2022/04/09 00:24:12;;;;;;;8.90;3.67;;;;;;;;;;4991089;28;20025;-62
2022/04/09 00:26:38;;;;;;;7.65;3.78;;;;;;;;;;4991072;28;20407;-62
2022/04/09 00:29:03;;;;;;;8.40;3.72;;;;;;;;;;4990636;28;20079;-62
2022/04/09 00:31:28;;;;;;;9.00;4.00;;;;;;;;;;4991033;28;20408;-64
2022/04/09 00:33:54;;;;;;;12.00;4.93;;;;;;;;;;4990846;28;20310;-63
2022/04/09 00:36:19;;;;;;;10.07;3.95;;;;;;;;;;4992953;28;20406;-62
2022/04/09 00:38:44;;;;;;;11.02;4.10;;;;;;;;;;4991816;28;20476;-62
2022/04/09 00:41:10;;;;;;;7.65;3.88;;;;;;;;;;4990478;28;20351;-62
2022/04/09 00:43:40;;;;;;;14.00;4.88;;;;;;;;;;4990447;28;20147;-63
2022/04/09 00:46:05;;;;;;;12.98;4.55;;;;;;;;;;4991988;28;20021;-62
2022/04/09 00:48:30;;;;;;;10.70;4.65;;;;;;;;;;4990598;28;20106;-62
2022/04/09 00:50:56;;;;;;;10.07;4.50;;;;;;;;;;4991670;28;20024;-66
2022/04/09 00:53:21;;;;;;;9.65;4.45;;;;;;;;;;4990542;28;20439;-62
2022/04/09 00:58:33;;;;;;;8.48;3.85;;;;;;;;;;4990628;28;20443;-62
2022/04/09 01:01:00;;;;;;;11.48;4.07;;;;;;;;;;4984696;28;20352;-63
2022/04/09 01:03:25;;;;;;;11.10;4.10;;;;;;;;;;4975572;28;20424;-63
2022/04/09 01:05:50;;;;;;;6.85;4.18;;;;;;;;;;4952814;28;20441;-62
2022/04/09 01:08:16;;;;;;;7.88;4.18;;;;;;;;;;4970281;28;20029;-63
2022/04/09 01:10:45;;;;;;;13.55;5.10;;;;;;;;;;4970266;28;20380;-62
2022/04/09 01:13:11;;;;;;;10.73;4.82;;;;;;;;;;4970436;28;20437;-63
2022/04/09 01:15:36;;;;;;;9.65;3.92;;;;;;;;;;4970765;28;20467;-63
2022/04/09 01:18:02;;;;;;;7.93;4.07;;;;;;;;;;4970677;28;20429;-63
2022/04/09 01:20:29;;;;;;;9.43;3.45;;;;;;;;;;4970345;28;20475;-62
2022/04/09 01:22:54;;;;;;;8.38;3.88;;;;;;;;;;4971092;28;20508;-63
2022/04/09 01:25:20;;;;;;;11.02;4.22;;;;;;;;;;4970051;28;20520;-63
2022/04/09 01:27:48;;;;;;;8.70;3.78;;;;;;;;;;4970105;28;20519;-62
2022/04/09 01:30:15;;;;;;;7.70;3.97;;;;;;;;;;4971747;28;20369;-62
2022/04/09 01:32:40;;;;;;;6.43;3.50;;;;;;;;;;4970180;28;20061;-63
2022/04/09 01:35:06;;;;;;;7.28;3.67;;;;;;;;;;4969973;28;20479;-62
2022/04/09 01:37:31;;;;;;;8.55;4.13;;;;;;;;;;4970266;28;20441;-63
2022/04/09 01:39:57;;;;;;;6.13;3.60;;;;;;;;;;4969558;28;20348;-63
2022/04/09 01:42:25;;;;;;;10.60;3.50;;;;;;;;;;4969523;28;20394;-62
2022/04/09 01:44:50;;;;;;;7.10;3.47;;;;;;;;;;4969520;28;20408;-63
2022/04/09 01:47:15;;;;;;;7.57;3.85;;;;;;;;;;4984055;28;20091;-62
2022/04/09 01:49:41;;;;;;;7.45;3.22;;;;;;;;;;4988947;28;20459;-62
2022/04/09 01:52:07;;;;;;;9.13;4.00;;;;;;;;;;4989536;28;20371;-62
2022/04/09 01:54:33;;;;;;;7.90;3.13;;;;;;;;;;4990161;28;20092;-62
2022/04/09 01:56:58;;;;;;;6.05;2.63;;;;;;;;;;4989913;28;20029;-63
2022/04/09 01:59:23;;;;;;;8.90;3.60;;;;;;;;;;4989166;28;20440;-62
2022/04/09 02:01:49;;;;;;;9.10;3.28;;;;;;;;;;4989862;28;20065;-63
2022/04/09 02:04:15;;;;;;;7.05;3.10;;;;;;;;;;4988965;28;20409;-62
2022/04/09 02:06:42;;;;;;;7.47;3.10;;;;;;;;;;4989160;28;20448;-63
2022/04/09 02:09:11;;;;;;;5.60;3.10;;;;;;;;;;4988124;28;20432;-63
2022/04/09 02:11:37;;;;;;;9.82;3.70;;;;;;;;;;4989240;28;20055;-63
2022/04/09 02:14:03;;;;;;;7.13;3.20;;;;;;;;;;4989457;28;20336;-62
2022/04/09 02:16:28;;;;;;;8.07;3.58;;;;;;;;;;4988761;28;20029;-63
2022/04/09 02:18:53;;;;;;;9.93;3.38;;;;;;;;;;4989067;28;20294;-62
2022/04/09 02:21:18;;;;;;;6.22;3.28;;;;;;;;;;4989372;28;20457;-63
2022/04/09 02:23:45;;;;;;;9.65;3.90;;;;;;;;;;4989076;28;20033;-63
2022/04/09 02:26:10;;;;;;;8.00;3.78;;;;;;;;;;4990006;28;20339;-63
2022/04/09 02:28:35;;;;;;;5.05;2.75;;;;;;;;;;4988913;28;20391;-62
2022/04/09 02:31:02;;;;;;;8.02;3.35;;;;;;;;;;4988650;28;20331;-62
2022/04/09 02:33:27;;;;;;;7.35;3.42;;;;;;;;;;4989014;28;20484;-62
2022/04/09 02:35:52;;;;;;;6.68;3.10;;;;;;;;;;4990332;28;20464;-62
2022/04/09 02:38:18;;;;;;;4.53;2.53;;;;;;;;;;4989146;28;20368;-63
2022/04/09 02:40:43;;;;;;;7.43;3.60;;;;;;;;;;4988217;28;20432;-63
2022/04/09 02:43:10;;;;;;;10.00;3.53;;;;;;;;;;4989196;28;20483;-62
2022/04/09 02:45:35;;;;;;;5.45;2.70;;;;;;;;;;4990204;28;20063;-63
2022/04/09 02:48:00;;;;;;;6.78;2.85;;;;;;;;;;4988491;28;20420;-63
2022/04/09 02:50:26;;;;;;;8.30;3.22;;;;;;;;;;4989645;28;20439;-63
2022/04/09 02:52:51;;;;;;;6.72;2.72;;;;;;;;;;4988612;28;20329;-63
2022/04/09 02:55:17;;;;;;;5.43;2.83;;;;;;;;;;4988482;28;20545;-63
2022/04/09 02:57:42;;;;;;;6.32;2.80;;;;;;;;;;4988549;28;20456;-63
2022/04/09 03:00:13;;;;;;;6.55;2.75;;;;;;;;;;4988536;28;20506;-63
2022/04/09 03:02:39;;;;;;;6.25;3.17;;;;;;;;;;4988619;28;20108;-62
2022/04/09 03:05:06;;;;;;;5.70;2.95;;;;;;;;;;4989251;28;20331;-63
2022/04/09 03:07:32;;;;;;;7.75;3.22;;;;;;;;;;4988739;28;20424;-63
2022/04/09 03:09:57;;;;;;;5.05;2.50;;;;;;;;;;4988831;28;20446;-62
2022/04/09 03:12:22;;;;;;;7.93;3.40;;;;;;;;;;4988388;28;20444;-63
2022/04/09 03:14:47;;;;;;;6.68;3.10;;;;;;;;;;4988276;28;20432;-63
2022/04/09 03:17:13;;;;;;;4.55;2.45;;;;;;;;;;4989304;28;20343;-62
2022/04/09 03:19:38;;;;;;;9.55;3.58;;;;;;;;;;4989927;28;20451;-62
2022/04/09 03:22:03;;;;;;;5.68;2.97;;;;;;;;;;4992733;28;20313;-62
2022/04/09 03:24:29;;;;;;;6.15;2.90;;;;;;;;;;4992859;28;20025;-63
2022/04/09 03:26:54;;;;;;;7.00;3.22;;;;;;;;;;4991993;28;20479;-63
2022/04/09 03:29:20;;;;;;;7.30;3.45;;;;;;;;;;4992127;28;20127;-63
2022/04/09 03:31:45;;;;;;;5.97;3.63;;;;;;;;;;4993440;28;20538;-63
2022/04/09 03:34:10;;;;;;;9.20;2.83;;;;;;;;;;4991958;28;20108;-62
2022/04/09 03:36:38;;;;;;;4.68;2.83;;;;;;;;;;4992295;28;20498;-63
2022/04/09 03:39:03;;;;;;;5.22;3.15;;;;;;;;;;4993139;28;20321;-62
2022/04/09 03:41:28;;;;;;;6.72;3.10;;;;;;;;;;4991539;28;20405;-63
2022/04/09 03:43:53;;;;;;;4.35;2.60;;;;;;;;;;4991790;28;20431;-63
2022/04/09 03:46:19;;;;;;;5.15;2.60;;;;;;;;;;4992256;28;20032;-63
2022/04/09 03:48:45;;;;;;;6.65;3.40;;;;;;;;;;4991225;28;20451;-63
2022/04/09 03:51:11;;;;;;;5.97;2.92;;;;;;;;;;4991947;28;20479;-63
2022/04/09 03:53:36;;;;;;;6.43;3.10;;;;;;;;;;4992157;28;20324;-62
2022/04/09 03:56:02;;;;;;;5.50;2.92;;;;;;;;;;4991767;28;20310;-62
2022/04/09 03:58:28;;;;;;;6.60;3.35;;;;;;;;;;4992237;28;20387;-63
2022/04/09 04:00:53;;;;;;;5.60;2.90;;;;;;;;;;4992901;28;20332;-63
2022/04/09 04:03:19;;;;;;;5.50;2.88;;;;;;;;;;4991444;28;20371;-62
2022/04/09 04:05:45;;;;;;;4.90;3.33;;;;;;;;;;4991177;28;20425;-63
2022/04/09 04:08:11;;;;;;;5.82;2.80;;;;;;;;;;4991853;28;20325;-62
2022/04/09 04:10:37;;;;;;;5.57;2.90;;;;;;;;;;4991199;28;20463;-63
2022/04/09 04:13:06;;;;;;;5.95;3.30;;;;;;;;;;4991669;28;20037;-63
2022/04/09 04:15:34;;;;;;;5.28;3.20;;;;;;;;;;4990878;28;20075;-63
2022/04/09 04:17:59;;;;;;;4.10;2.63;;;;;;;;;;4991273;28;20502;-63
2022/04/09 04:20:25;;;;;;;7.38;3.65;;;;;;;;;;4990667;28;20522;-63
2022/04/09 04:22:53;;;;;;;7.32;3.22;;;;;;;;;;4990895;28;20539;-64
2022/04/09 04:25:19;;;;;;;4.90;2.90;;;;;;;;;;4990766;28;20444;-63
2022/04/09 04:27:47;;;;;;;7.32;3.80;;;;;;;;;;4991438;28;20397;-64
2022/04/09 04:30:13;;;;;;;5.47;2.72;;;;;;;;;;4990763;28;20510;-63
2022/04/09 04:32:39;;;;;;;4.60;3.05;;;;;;;;;;4990671;28;20419;-63
2022/04/09 04:35:05;;;;;;;5.85;3.13;;;;;;;;;;4991363;28;20467;-63
2022/04/09 04:37:43;;;;;;;6.60;3.13;;;;;;;;;;4990933;28;20462;-63
2022/04/09 04:40:10;;;;;;;6.03;3.10;;;;;;;;;;4990974;28;20510;-63
2022/04/09 04:42:35;;;;;;;5.10;2.60;;;;;;;;;;4990162;28;20057;-63
2022/04/09 04:45:01;;;;;;;4.38;2.85;;;;;;;;;;4991419;28;20051;-63
2022/04/09 04:47:26;;;;;;;6.50;3.33;;;;;;;;;;4990499;28;20523;-63
2022/04/09 04:49:51;;;;;;;6.85;2.40;;;;;;;;;;4990950;28;20530;-63
2022/04/09 04:52:17;;;;;;;5.18;2.97;;;;;;;;;;4990083;28;20387;-63
2022/04/09 04:54:42;;;;;;;3.70;2.63;;;;;;;;;;4990694;28;20021;-63
2022/04/09 04:57:07;;;;;;;4.38;2.60;;;;;;;;;;4990232;28;20094;-63
2022/04/09 04:59:33;;;;;;;4.53;2.40;;;;;;;;;;4991970;28;20504;-63
2022/04/09 05:01:58;;;;;;;5.53;2.38;;;;;;;;;;4989994;28;20384;-63
2022/04/09 05:04:25;;;;;;;5.53;2.83;;;;;;;;;;4990312;28;20344;-63
2022/04/09 05:06:51;;;;;;;4.10;2.40;;;;;;;;;;4990173;28;20437;-63
2022/04/09 05:09:17;;;;;;;5.65;3.08;;;;;;;;;;4990661;28;20029;-63
2022/04/09 05:11:43;;;;;;;4.93;2.67;;;;;;;;;;4989822;28;20392;-62
2022/04/09 05:14:08;;;;;;;5.95;2.95;;;;;;;;;;4990348;28;20395;-62
2022/04/09 05:16:33;;;;;;;5.38;2.30;;;;;;;;;;4991002;28;20440;-64
2022/04/09 05:18:59;;;;;;;3.72;2.10;;;;;;;;;;4990025;28;20052;-63
2022/04/09 05:21:25;;;;;;;5.28;2.47;;;;;;;;;;4990055;28;20328;-64
2022/04/09 05:23:50;;;;;;;4.60;2.53;;;;;;;;;;4990157;28;20399;-63
2022/04/09 05:26:16;;;;;;;4.32;2.25;;;;;;;;;;4989906;28;20130;-63
2022/04/09 05:28:42;;;;;;;4.88;2.55;;;;;;;;;;4989936;28;20529;-63
2022/04/09 05:31:09;;;;;;;3.50;2.20;;;;;;;;;;4990428;28;20475;-63
2022/04/09 05:33:34;;;;;;;5.63;2.08;;;;;;;;;;4989836;28;20498;-63
2022/04/09 05:36:01;;;;;;;4.68;2.20;;;;;;;;;;4989389;28;20435;-63
2022/04/09 05:38:26;;;;;;;4.03;2.10;;;;;;;;;;4989415;28;20420;-63
2022/04/09 05:40:52;;;;;;;4.80;2.25;;;;;;;;;;4988860;28;20052;-63
2022/04/09 05:43:17;;;;;;;3.78;2.20;;;;;;;;;;4972048;28;20462;-63
2022/04/09 05:45:42;;;;;;;3.95;2.10;;;;;;;;;;4989022;28;20368;-63
2022/04/09 05:48:08;;;;;;;5.57;2.00;;;;;;;;;;4990578;28;20301;-62
2022/04/09 05:50:33;;;;;;;2.72;1.77;;;;;;;;;;4990772;28;20527;-63
2022/04/09 05:52:58;;;;;;;2.85;1.83;;;;;;;;;;4989148;28;20488;-63
2022/04/09 05:55:24;;;;;;;3.17;1.85;;;;;;;;;;4989418;28;20090;-63
2022/04/09 05:57:49;;;;;;;3.28;2.03;;;;;;;;;;4991287;28;20044;-63
2022/04/09 06:00:16;;;;;;;3.88;2.00;;;;;;;;;;4989567;28;20535;-63
2022/04/09 06:02:42;;;;;;;3.17;1.58;;;;;;;;;;4989379;28;20444;-63
2022/04/09 06:05:08;;;;;;;1.88;1.35;;;;;;;;;;4990708;28;20312;-63
2022/04/09 06:07:34;;;;;;;2.38;1.33;;;;;;;;;;4989819;28;20056;-64
2022/04/09 06:10:00;;;;;;;2.50;1.77;;;;;;;;;;4988733;28;20464;-63
2022/04/09 06:12:25;;;;;;;4.15;1.48;;;;;;;;;;4990022;28;20408;-63
2022/04/09 06:14:50;;;;;;;2.72;1.92;;;;;;;;;;4988568;28;20348;-63
2022/04/09 06:17:16;;;;;;;3.25;1.73;;;;;;;;;;4989248;28;20043;-63
2022/04/09 06:19:41;;;;;;;2.80;1.48;;;;;;;;;;4989007;28;20463;-63
2022/04/09 06:22:06;;;;;;;4.03;1.55;;;;;;;;;;4989113;28;20356;-62
2022/04/09 06:24:32;;;;;;;2.63;1.48;;;;;;;;;;4988716;28;20440;-63
2022/04/09 06:26:57;;;;;;;4.35;1.77;;;;;;;;;;4989266;28;20091;-63
2022/04/09 06:29:22;;;;;;;3.72;1.67;;;;;;;;;;4988962;28;20505;-64
2022/04/09 06:31:48;;;;;;;4.55;1.92;;;;;;;;;;4990046;28;20435;-64
2022/04/09 06:34:14;;;;;;;3.78;2.03;;;;;;;;;;4989910;28;20428;-63
2022/04/09 06:36:39;;;;;;;4.32;1.80;;;;;;;;;;4989174;28;20395;-63
2022/04/09 06:39:05;;;;;;;2.50;1.80;;;;;;;;;;4988716;28;20021;-63
2022/04/09 06:41:30;;;;;;;6.93;2.75;;;;;;;;;;4988356;28;20353;-63
2022/04/09 06:43:56;;;;;;;4.35;2.95;;;;;;;;;;4988275;28;20325;-62
2022/04/09 06:46:21;;;;;;;8.85;3.72;;;;;;;;;;4989181;28;20459;-63
2022/04/09 06:48:47;;;;;;;11.75;5.03;;;;;;;;;;4988481;28;20029;-62
2022/04/09 06:51:12;;;;;;;12.20;4.53;;;;;;;;;;4989733;28;20511;-63
2022/04/09 06:53:38;;;;;;;7.78;4.43;;;;;;;;;;4988397;28;21388;-63
2022/04/09 06:56:06;;;;;;;12.55;4.00;;;;;;;;;;4989302;28;20463;-62
2022/04/09 06:58:33;;;;;;;14.40;5.35;;;;;;;;;;4992823;28;20504;-62
2022/04/09 07:00:59;;;;;;;10.15;5.05;;;;;;;;;;4992624;28;20317;-62
2022/04/09 07:03:25;;;;;;;14.07;5.38;;;;;;;;;;4993353;28;20478;-63
2022/04/09 07:05:50;;;;;;;13.10;4.10;;;;;;;;;;4992054;28;20116;-62
2022/04/09 07:08:16;;;;;;;8.20;3.80;;;;;;;;;;4992428;28;20487;-63
2022/04/09 07:10:41;;;;;;;9.50;3.92;;;;;;;;;;4992285;28;20029;-62
2022/04/09 07:13:07;;;;;;;9.88;3.78;;;;;;;;;;4993207;28;20439;-62
2022/04/09 07:15:33;;;;;;;10.30;3.83;;;;;;;;;;4992225;28;20364;-63
2022/04/09 07:17:58;;;;;;;10.90;4.45;;;;;;;;;;4992168;28;20353;-63
2022/04/09 07:20:24;;;;;;;10.95;4.80;;;;;;;;;;4992030;28;20044;-63
2022/04/09 07:22:49;;;;;;;10.13;4.70;;;;;;;;;;4992302;28;20368;-63
2022/04/09 07:25:16;;;;;;;7.40;3.95;;;;;;;;;;4993675;28;20025;-63
2022/04/09 07:27:47;;;;;;;8.48;3.67;;;;;;;;;;4992919;28;20526;-62
2022/04/09 07:30:17;;;;;;;9.27;3.95;;;;;;;;;;4991890;28;20336;-62
2022/04/09 07:32:43;;;;;;;9.23;4.43;;;;;;;;;;4993600;28;20510;-63
2022/04/09 07:35:09;;;;;;;11.05;5.13;;;;;;;;;;4992171;28;20432;-62
2022/04/09 07:37:45;;;;;;;13.40;5.20;;;;;;;;;;4991752;28;20371;-63
2022/04/09 07:40:12;;;;;;;14.55;5.00;;;;;;;;;;4991937;28;20383;-62
2022/04/09 07:42:39;;;;;;;13.23;5.13;;;;;;;;;;4992065;28;20428;-62
2022/04/09 07:45:06;;;;;;;10.68;4.60;;;;;;;;;;4993210;28;20088;-63
2022/04/09 07:47:31;;;;;;;14.73;4.85;;;;;;;;;;4992861;28;20060;-62
2022/04/09 07:49:57;;;;;;;8.45;4.25;;;;;;;;;;4991977;28;20519;-62
2022/04/09 07:52:22;;;;;;;11.43;4.78;;;;;;;;;;4992230;28;20136;-64
2022/04/09 07:54:47;;;;;;;12.90;5.43;;;;;;;;;;4991855;28;20455;-63
2022/04/09 07:57:13;;;;;;;14.35;5.38;;;;;;;;;;4991930;28;20395;-63
2022/04/09 07:59:38;;;;;;;11.40;4.15;;;;;;;;;;4991724;28;20455;-62
2022/04/09 08:02:03;;;;;;;9.73;4.07;;;;;;;;;;4991311;28;20578;-63
2022/04/09 08:04:29;;;;;;;11.95;4.75;;;;;;;;;;4974590;28;20029;-64
2022/04/09 08:06:54;;;;;;;10.27;4.35;;;;;;;;;;4991595;28;20332;-63
2022/04/09 08:09:19;;;;;;;13.70;4.47;;;;;;;;;;4991585;28;20631;-63
2022/04/09 08:11:45;;;;;;;9.90;4.28;;;;;;;;;;4991331;28;20436;-62
2022/04/09 08:14:11;;;;;;;9.50;4.10;;;;;;;;;;4990982;28;20433;-62
2022/04/09 08:16:38;;;;;;;11.60;4.30;;;;;;;;;;4990863;28;20036;-63
2022/04/09 08:19:03;;;;;;;10.45;4.18;;;;;;;;;;4991079;28;20103;-63
2022/04/09 08:21:28;;;;;;;10.77;4.97;;;;;;;;;;4990733;28;20444;-62
2022/04/09 08:23:54;;;;;;;7.10;3.60;;;;;;;;;;4991497;28;20416;-62
2022/04/09 08:26:19;;;;;;;11.90;3.97;;;;;;;;;;4992494;28;20493;-63
2022/04/09 08:28:44;;;;;;;8.77;4.30;;;;;;;;;;4990913;28;20032;-64
2022/04/09 08:31:10;;;;;;;8.82;3.85;;;;;;;;;;4991295;28;20336;-62
2022/04/09 08:33:35;;;;;;;8.88;4.47;;;;;;;;;;4991066;28;20344;-63
2022/04/09 08:36:02;;;;;;;7.82;4.10;;;;;;;;;;4991067;28;20340;-62
2022/04/09 08:38:28;;;;;;;11.00;4.45;;;;;;;;;;4990579;28;20351;-63
2022/04/09 08:40:53;;;;;;;9.98;4.20;;;;;;;;;;4990510;28;20383;-63
2022/04/09 08:43:18;;;;;;;7.28;3.60;;;;;;;;;;4991120;28;20420;-62
2022/04/09 08:45:44;;;;;;;7.80;4.05;;;;;;;;;;4990259;28;20420;-63
2022/04/09 08:48:10;;;;;;;7.90;3.75;;;;;;;;;;4990544;28;20448;-62
2022/04/09 08:50:36;;;;;;;7.90;4.07;;;;;;;;;;4988758;28;20436;-62
2022/04/09 08:53:06;;;;;;;8.55;4.03;;;;;;;;;;4991229;28;20447;-62
2022/04/09 08:55:33;;;;;;;7.50;3.63;;;;;;;;;;4990820;28;20395;-62
2022/04/09 08:57:59;;;;;;;8.13;3.90;;;;;;;;;;4990288;28;20344;-63
2022/04/09 09:00:24;;;;;;;8.57;3.63;;;;;;;;;;4992329;28;20368;-62
2022/04/09 09:02:50;;;;;;;8.18;3.78;;;;;;;;;;4990234;28;20055;-63
2022/04/09 09:05:33;;;;;;;8.07;3.75;;;;;;;;;;4991710;28;20463;-62
2022/04/09 09:07:58;;;;;;;6.95;3.40;;;;;;;;;;4990871;28;20527;-63
2022/04/09 09:10:24;;;;;;;7.88;4.40;;;;;;;;;;4990335;28;20456;-62
2022/04/09 09:13:04;;;;;;;7.20;4.03;;;;;;;;;;4990471;28;20444;-63
2022/04/09 09:15:31;;;;;;;12.30;4.68;;;;;;;;;;4990030;28;20387;-62
2022/04/09 09:17:57;;;;;;;8.13;3.75;;;;;;;;;;4989188;28;20322;-63
2022/04/09 09:20:24;;;;;;;6.20;4.03;;;;;;;;;;4990421;28;20401;-62
2022/04/09 09:22:50;;;;;;;8.50;4.88;;;;;;;;;;4990149;28;20087;-62
2022/04/09 09:25:17;;;;;;;9.82;4.60;;;;;;;;;;4990270;28;20460;-62
2022/04/09 09:27:43;;;;;;;8.07;4.63;;;;;;;;;;4990025;28;20344;-62
2022/04/09 09:30:12;;;;;;;12.20;4.15;;;;;;;;;;4990295;28;20068;-63
2022/04/09 09:32:41;;;;;;;9.75;4.35;;;;;;;;;;4989541;28;20383;-63
2022/04/09 09:35:09;;;;;;;7.18;3.80;;;;;;;;;;4990856;28;20309;-62
2022/04/09 09:37:35;;;;;;;7.28;3.65;;;;;;;;;;4990495;28;20494;-62
2022/04/09 09:40:00;;;;;;;6.78;3.60;;;;;;;;;;4989589;28;20396;-63
2022/04/09 09:42:28;;;;;;;7.13;3.28;;;;;;;;;;4990549;28;20385;-63
2022/04/09 09:44:54;;;;;;;6.90;3.80;;;;;;;;;;4990023;28;20344;-62
2022/04/09 09:47:19;;;;;;;10.02;4.18;;;;;;;;;;4989671;28;20320;-62
2022/04/09 09:49:46;;;;;;;7.53;4.13;;;;;;;;;;4990228;28;20375;-62
2022/04/09 09:52:11;;;;;;;5.13;2.80;;;;;;;;;;4989124;28;20321;-63
2022/04/09 09:54:56;;;;;;;11.85;4.85;;;;;;;;;;4989382;28;20395;-62
2022/04/09 09:57:23;;;;;;;6.82;3.92;;;;;;;;;;4989180;28;20464;-63
2022/04/09 09:59:49;;;;;;;6.45;3.22;;;;;;;;;;4989732;28;20478;-62
2022/04/09 10:02:19;;;;;;;5.88;3.00;;;;;;;;;;4988881;28;20352;-62
2022/04/09 10:04:46;;;;;;;6.45;3.25;;;;;;;;;;4989389;28;20025;-62
2022/04/09 10:07:11;;;;;;;6.60;3.25;;;;;;;;;;4990107;28;20322;-63
2022/04/09 10:09:36;;;;;;;9.00;4.30;;;;;;;;;;4989002;28;20033;-63
2022/04/09 10:12:05;;;;;;;7.40;3.47;;;;;;;;;;4989075;28;20175;-63
2022/04/09 10:14:31;;;;;;;8.17;3.77;;;;;;;;;;4971592;28;20456;-66
2022/04/09 10:16:58;;;;;;;6.80;3.53;;;;;;;;;;4989319;28;20428;-62
2022/04/09 10:19:25;;;;;;;9.35;3.78;;;;;;;;;;4989765;28;20570;-62
2022/04/09 10:21:51;;;;;;;6.03;3.58;;;;;;;;;;4972070;28;21169;-64
2022/04/09 10:24:22;;;;;;;7.43;3.42;;;;;;;;;;4988547;28;20500;-63
2022/04/09 10:26:47;;;;;;;7.75;3.33;;;;;;;;;;4971491;28;20329;-63
2022/04/09 10:29:13;;;;;;;7.20;3.35;;;;;;;;;;4988710;28;20340;-62
2022/04/09 10:31:40;;;;;;;6.63;3.28;;;;;;;;;;4988064;28;20446;-63
2022/04/09 10:34:07;;;;;;;6.50;3.28;;;;;;;;;;4988784;28;20367;-63
2022/04/09 10:36:44;;;;;;;5.90;2.95;;;;;;;;;;4988502;28;20379;-63
2022/04/09 10:39:21;;;;;;;5.90;3.40;;;;;;;;;;4990235;28;20371;-63
2022/04/09 10:41:47;;;;;;;7.93;3.58;;;;;;;;;;4987807;28;20489;-63
2022/04/09 10:44:44;;;;;;;5.63;3.50;;;;;;;;;;4989678;28;20435;-62
2022/04/09 10:47:14;;;;;;;6.25;3.30;;;;;;;;;;4988780;28;20025;-63
2022/04/09 10:49:41;;;;;;;5.43;3.08;;;;;;;;;;4988309;28;20491;-62
2022/04/09 10:52:16;;;;;;;7.25;3.90;;;;;;;;;;4989907;28;20040;-62
2022/04/09 10:55:20;;;;;;;7.65;3.08;;;;;;;;;;4987347;28;20428;-63
2022/04/09 10:57:47;;;;;;;7.90;3.47;;;;;;;;;;4988970;28;20474;-62
2022/04/09 11:00:25;;;;;;;6.07;3.45;;;;;;;;;;4988827;28;20534;-63
2022/04/09 11:03:29;;;;;;;6.75;3.28;;;;;;;;;;4988394;28;20314;-62
2022/04/09 11:06:31;;;;;;;5.55;3.08;;;;;;;;;;4957354;28;20349;-63
2022/04/09 11:08:57;;;;;;;5.20;3.00;;;;;;;;;;4988317;28;20451;-62
2022/04/09 11:11:26;;;;;;;7.30;2.97;;;;;;;;;;4989914;28;20427;-63
2022/04/09 11:13:53;;;;;;;6.50;3.40;;;;;;;;;;4988467;28;20483;-62
2022/04/09 11:16:18;;;;;;;5.35;3.08;;;;;;;;;;4988947;28;20489;-63
2022/04/09 11:18:44;;;;;;;6.53;2.80;;;;;;;;;;4970670;28;20434;-63
2022/04/09 11:21:13;;;;;;;7.35;3.25;;;;;;;;;;4988120;28;20128;-63
2022/04/09 11:23:38;;;;;;;5.35;3.08;;;;;;;;;;4988065;28;20036;-63
2022/04/09 11:26:04;;;;;;;6.18;2.92;;;;;;;;;;4988245;28;20098;-63
2022/04/09 11:28:37;;;;;;;6.55;3.20;;;;;;;;;;4989586;28;20506;-63
2022/04/09 11:31:05;;;;;;;5.18;3.22;;;;;;;;;;4988227;28;20432;-63
2022/04/09 11:33:31;;;;;;;5.93;3.20;;;;;;;;;;4989610;28;20511;-62
2022/04/09 11:35:57;;;;;;;6.47;2.92;;;;;;;;;;4988499;28;20377;-63
2022/04/09 11:38:23;;;;;;;7.22;3.45;;;;;;;;;;4988742;28;20490;-62
2022/04/09 11:40:49;;;;;;;5.95;3.40;;;;;;;;;;4988127;28;20317;-62
2022/04/09 11:43:16;;;;;;;7.38;3.35;;;;;;;;;;4990868;28;20340;-63
2022/04/09 11:45:42;;;;;;;6.75;3.22;;;;;;;;;;4991748;28;20048;-63
2022/04/09 11:48:22;;;;;;;5.22;2.88;;;;;;;;;;4992631;28;20455;-63
2022/04/09 11:50:47;;;;;;;10.50;3.00;;;;;;;;;;4992546;28;20033;-62
2022/04/09 11:53:20;;;;;;;5.78;3.00;;;;;;;;;;4991751;28;20085;-63
2022/04/09 11:55:47;;;;;;;6.25;2.97;;;;;;;;;;4992682;28;20324;-62
2022/04/09 11:58:18;;;;;;;5.70;2.83;;;;;;;;;;4991853;28;20493;-62
2022/04/09 12:00:47;;;;;;;6.65;3.58;;;;;;;;;;4991724;28;20100;-63
2022/04/09 12:03:14;;;;;;;9.48;3.47;;;;;;;;;;4991467;28;20534;-63
2022/04/09 12:05:46;;;;;;;7.72;3.35;;;;;;;;;;4991399;28;20440;-63
2022/04/09 12:08:14;;;;;;;8.48;3.10;;;;;;;;;;4989811;28;20436;-64
2022/04/09 12:10:54;;;;;;;9.68;3.78;;;;;;;;;;4973392;28;20493;-63
2022/04/09 12:13:28;;;;;;;6.13;2.97;;;;;;;;;;4991453;28;20428;-64
2022/04/09 12:15:54;;;;;;;8.13;3.28;;;;;;;;;;4991721;28;20033;-63
2022/04/09 12:18:46;;;;;;;9.75;3.63;;;;;;;;;;4991393;28;20021;-63
2022/04/09 12:21:26;;;;;;;8.98;3.20;;;;;;;;;;4988173;28;20475;-63
2022/04/09 12:24:08;;;;;;;11.27;3.63;;;;;;;;;;4991646;28;20349;-63
2022/04/09 12:26:36;;;;;;;7.47;3.35;;;;;;;;;;4991088;28;20415;-63
2022/04/09 12:29:26;;;;;;;7.25;3.00;;;;;;;;;;4992923;28;20340;-62
2022/04/09 12:32:12;;;;;;;8.80;2.83;;;;;;;;;;4991225;28;20394;-63
2022/04/09 12:34:51;;;;;;;6.13;2.95;;;;;;;;;;4992435;28;20029;-62
2022/04/09 12:37:16;;;;;;;6.47;3.15;;;;;;;;;;4990828;28;20463;-62
2022/04/09 12:39:44;;;;;;;7.18;3.17;;;;;;;;;;4990734;28;20494;-63
2022/04/09 12:42:10;;;;;;;5.63;2.78;;;;;;;;;;4990625;28;20321;-62
2022/04/09 12:44:36;;;;;;;7.75;3.05;;;;;;;;;;4990668;28;20328;-63
2022/04/09 12:47:02;;;;;;;6.82;3.47;;;;;;;;;;4990877;28;20448;-63
2022/04/09 12:49:29;;;;;;;6.53;3.15;;;;;;;;;;4990194;28;20055;-62
2022/04/09 12:51:54;;;;;;;7.28;3.22;;;;;;;;;;4990730;28;20348;-63
2022/04/09 12:54:19;;;;;;;6.18;3.17;;;;;;;;;;4991032;28;20325;-63
2022/04/09 12:56:45;;;;;;;6.80;3.80;;;;;;;;;;4990550;28;20092;-63
2022/04/09 12:59:10;;;;;;;5.93;3.53;;;;;;;;;;4990602;28;20321;-63
2022/04/09 13:01:36;;;;;;;5.88;3.15;;;;;;;;;;4990421;28;20095;-63
2022/04/09 13:04:02;;;;;;;5.93;3.72;;;;;;;;;;4988922;28;20531;-63
2022/04/09 13:06:28;;;;;;;6.07;3.33;;;;;;;;;;4990203;28;20467;-63
2022/04/09 13:08:53;;;;;;;5.88;2.95;;;;;;;;;;4991966;28;20428;-62
2022/04/09 13:11:19;;;;;;;9.60;3.72;;;;;;;;;;4990348;28;20024;-62
2022/04/09 13:13:45;;;;;;;7.88;3.03;;;;;;;;;;4991454;28;20033;-63
2022/04/09 13:16:10;;;;;;;7.45;3.40;;;;;;;;;;4990763;28;20457;-63
2022/04/09 13:18:36;;;;;;;8.43;3.00;;;;;;;;;;4990858;28;20040;-63
2022/04/09 13:21:01;;;;;;;5.45;3.15;;;;;;;;;;4989592;28;20420;-63
2022/04/09 13:23:26;;;;;;;6.22;3.13;;;;;;;;;;4990103;28;20561;-63
2022/04/09 13:25:53;;;;;;;4.57;2.33;;;;;;;;;;4989589;28;20436;-63
2022/04/09 13:28:19;;;;;;;8.02;2.75;;;;;;;;;;4990248;28;20407;-62
2022/04/09 13:30:44;;;;;;;10.93;5.00;;;;;;;;;;4990946;28;20025;-63
2022/04/09 13:33:09;;;;;;;10.50;3.88;;;;;;;;;;4988449;28;20047;-63
2022/04/09 13:35:35;;;;;;;10.13;4.65;;;;;;;;;;4989497;28;20439;-63
2022/04/09 13:38:00;;;;;;;6.50;3.30;;;;;;;;;;4989822;28;20075;-63
2022/04/09 13:40:25;;;;;;;8.55;4.15;;;;;;;;;;4990784;28;20435;-63
2022/04/09 13:42:51;;;;;;;7.60;3.88;;;;;;;;;;4989375;28;20535;-63
2022/04/09 13:45:16;;;;;;;9.38;4.45;;;;;;;;;;4971947;28;20418;-63
2022/04/09 13:47:42;;;;;;;5.78;2.60;;;;;;;;;;4989953;28;20455;-63
2022/04/09 13:50:09;;;;;;;5.82;2.80;;;;;;;;;;4990242;28;20024;-63
2022/04/09 13:52:35;;;;;;;8.93;3.42;;;;;;;;;;4989588;28;20017;-63
2022/04/09 13:55:00;;;;;;;8.05;3.15;;;;;;;;;;4989681;28;20541;-63
2022/04/09 13:57:26;;;;;;;6.70;3.45;;;;;;;;;;4989686;28;20095;-63
2022/04/09 13:59:51;;;;;;;5.97;3.30;;;;;;;;;;4988991;28;20432;-63
2022/04/09 14:02:18;;;;;;;4.95;2.70;;;;;;;;;;4989892;28;20344;-63
2022/04/09 14:04:43;;;;;;;6.68;3.33;;;;;;;;;;4988625;28;20417;-63
2022/04/09 14:07:09;;;;;;;8.27;3.22;;;;;;;;;;4990231;28;20371;-63
2022/04/09 14:09:34;;;;;;;6.43;3.20;;;;;;;;;;4989226;28;20041;-63
2022/04/09 14:11:59;;;;;;;6.38;2.78;;;;;;;;;;4989603;28;20333;-63
2022/04/09 14:14:25;;;;;;;9.05;2.75;;;;;;;;;;4971094;28;20463;-63
2022/04/09 14:16:52;;;;;;;6.18;3.17;;;;;;;;;;4990494;28;20025;-63
2022/04/09 14:19:17;;;;;;;10.45;3.63;;;;;;;;;;4989061;28;20431;-63
2022/04/09 14:21:43;;;;;;;4.38;2.60;;;;;;;;;;4990409;28;20352;-62
2022/04/09 14:24:09;;;;;;;5.35;2.63;;;;;;;;;;4989466;28;20484;-63
2022/04/09 14:26:35;;;;;;;6.72;3.25;;;;;;;;;;4988699;28;20506;-64
2022/04/09 14:29:03;;;;;;;5.97;2.95;;;;;;;;;;4990482;28;20406;-63
2022/04/09 14:31:32;;;;;;;7.23;2.43;;;;;;;;;;4988664;28;20083;-63
2022/04/09 14:33:58;;;;;;;;;;;;;;;;;;4989276;28;20495;-63
2022/04/09 14:36:23;;;;;;;5.45;2.15;;;;;;;;;;4988902;28;20418;-63
2022/04/09 14:38:49;;;;;;;8.40;2.95;;;;;;;;;;4988819;28;20436;-63
2022/04/09 14:41:14;;;;;;;4.65;2.47;;;;;;;;;;4989376;28;20436;-63
2022/04/09 14:43:39;;;;;;;5.30;2.42;;;;;;;;;;4989014;28;20391;-63